Aérodrome :
LOGIN :

S'inscrire | Disclaimer

   EN    FR    IT 

 










Légende :    VFR   VFR Marginal   IFR   IFR Intensif   IFR Très Intensif
Visi : 
Plafond : 
>= 8 km
>= 3000ft
5 à 8 km
1000 à 3000 ft
1500m à 5 km
500 à 1000 ft
800 à 1500m
200 à 500 ft
< 800m
< 200 ft
Symboles :   Orages  Brouillard  Fortes neiges  Fortes précipitations  Vent > 20 kt
SIGMETs :   Divers  Orages  Givrage  Turbulence  Onde Orograph.  Cendres Volcan.







- Altitude de l'aérodrome : 289 ft


LIRG - Guidonia

DERNIER METAR :
  • 290655Z 21013KT 9999 BKN033 25/18 Q1007

METARs EXPIRÉS :
  • 290555Z 21010KT 9999 BKN033 24/19 Q1007 RMK BKN MON NE LIB NC VIS MIN 9999 BLU
  • 290455Z 03002KT CAVOK 22/19 Q1006 RMK SCT SCT100 MON NE LIB VIS MIN 9999 BLU

TAF TAF LIRG
Valide du 29 à 06h jusqu'au 29 à 15h UTC


290500Z 2906/2915 VRB03KT 9999 SCT040
BECMG 2908/2910 23016KT
TEMPO 2910/2914 RA FEW020 BKN025
Pas de NOTAMs connus pour ce terrain.
1 SIGMET publié pour la FIR Roma (LIRR) :
 
Turbulence forte
LIRR SIGMET 2 VALID 290500/290900 LIIB- LIRR ROMA FIR SEV TURB FCST N OF LINE N3943 E00742 - N4113 E01520 FL200/360 STNR NC=



MET'MAP, la Météo Aéronautique d'un coup d'oeil ! - Copyright ORBIFLY Décembre 2007 - Disclaimer

ORBIFLY MET'MAP TEAM :

Programmation & Développement : Alexandra Zaïnal
Conception & Développement : Baudouin d'Aumeries
Co-Programmation & Développement : Marc-Olivier Méhu
Soutien technique & logistique : Manuel Goepfert

Contact : metmap@orbifly.com




SOURCES & CREDITS :

   NOAA